Time;durP1;ratioP1;P1;durP2;ratioP2;P2;SDS_P1;SDS_P2;PMS_P1;PMS_P2;Temp;Humidity;BMP_temperature;BMP_pressure;BME280_temperature;BME280_humidity;BME280_pressure;Samples;Min_cycle;Max_cycle;Signal;HPM_P1;HPM_P2
2021/08/23 00:03:12;;;;;;;15.10;7.47;;;;;;;15.21;90.87;101905.75;10187176;28;20071;-69
2021/08/23 00:08:09;;;;;;;14.63;6.88;;;;;;;15.22;91.00;101908.16;10187422;28;20053;-70
2021/08/23 00:13:06;;;;;;;18.67;7.70;;;;;;;15.23;91.03;101903.47;10188794;28;20451;-68
2021/08/23 00:18:02;;;;;;;14.15;7.55;;;;;;;15.22;91.17;101902.63;10184208;28;20134;-68
2021/08/23 00:22:59;;;;;;;17.60;7.78;;;;;;;15.25;91.07;101904.78;10186367;28;20132;-69
2021/08/23 00:27:55;;;;;;;20.70;8.73;;;;;;;15.15;91.82;101897.63;10177360;28;20109;-67
2021/08/23 00:32:52;;;;;;;16.50;7.75;;;;;;;15.16;92.13;101892.91;10190752;28;20119;-67
2021/08/23 00:37:50;;;;;;;18.83;8.35;;;;;;;15.20;92.24;101893.91;10187865;28;20570;-70
2021/08/23 00:42:47;;;;;;;12.55;6.82;;;;;;;15.20;91.99;101899.41;10185930;28;20046;-70
2021/08/23 00:47:44;;;;;;;14.93;7.45;;;;;;;15.19;92.15;101903.28;10184449;28;20046;-70
2021/08/23 00:52:42;;;;;;;15.45;7.97;;;;;;;15.21;92.13;101912.06;10180105;28;20054;-70
2021/08/23 00:57:40;;;;;;;11.50;7.20;;;;;;;15.25;92.21;101899.25;10181393;28;20049;-70
2021/08/23 01:07:57;;;;;;;11.57;6.07;;;;;;;15.20;92.39;101901.34;11002103;23;20461;-69
2021/08/23 01:12:55;;;;;;;16.40;6.88;;;;;;;15.14;92.17;101906.19;10199214;28;20049;-67
2021/08/23 01:17:54;;;;;;;17.60;5.88;;;;;;;15.11;92.11;101907.66;10203738;28;20503;-70
2021/08/23 01:22:53;;;;;;;11.88;5.43;;;;;;;15.04;92.51;101911.97;10184890;28;20559;-69
2021/08/23 01:28:08;;;;;;;10.93;5.60;;;;;;;14.99;92.47;101914.88;10186643;28;20538;-69
2021/08/23 01:33:05;;;;;;;9.35;5.22;;;;;;;14.96;92.58;101921.03;10182389;28;20038;-69
2021/08/23 01:38:01;;;;;;;16.42;5.38;;;;;;;15.02;92.35;101925.28;10193318;28;20037;-69
2021/08/23 01:42:58;;;;;;;11.05;4.40;;;;;;;15.03;92.31;101935.16;10181184;28;20129;-69
2021/08/23 01:47:54;;;;;;;7.40;5.10;;;;;;;14.98;92.73;101930.59;10178763;28;20084;-69
2021/08/23 01:52:51;;;;;;;15.82;5.72;;;;;;;14.98;92.56;101927.06;10182943;28;20089;-70
2021/08/23 01:57:47;;;;;;;8.82;3.72;;;;;;;14.97;92.47;101933.66;10179856;28;20073;-71
2021/08/23 02:02:44;;;;;;;20.02;4.22;;;;;;;14.96;92.05;101932.88;10184417;28;20046;-70
2021/08/23 02:07:41;;;;;;;9.23;3.67;;;;;;;14.97;91.92;101934.50;10176967;28;20046;-68
2021/08/23 02:12:37;;;;;;;11.15;4.20;;;;;;;14.92;92.00;101938.22;10180978;28;20161;-69
2021/08/23 02:17:34;;;;;;;9.52;3.38;;;;;;;14.89;91.48;101944.34;10184540;28;20050;-69
2021/08/23 02:22:30;;;;;;;7.82;3.15;;;;;;;14.89;91.44;101946.28;10184766;28;20073;-68
2021/08/23 02:27:27;;;;;;;14.02;3.30;;;;;;;14.86;90.96;101939.47;10183271;28;20073;-68
2021/08/23 02:32:23;;;;;;;7.68;2.83;;;;;;;14.83;91.26;101945.63;10176700;28;20046;-68
2021/08/23 02:37:20;;;;;;;8.02;2.53;;;;;;;14.80;91.13;101951.75;10184364;28;20388;-68
2021/08/23 02:42:16;;;;;;;10.52;2.58;;;;;;;14.71;90.74;101953.63;10182295;28;20137;-68
2021/08/23 02:47:12;;;;;;;6.53;2.65;;;;;;;14.68;90.57;101957.84;10179391;28;20046;-70
2021/08/23 02:52:09;;;;;;;9.80;2.97;;;;;;;14.58;90.62;101968.31;10181812;28;20065;-68
2021/08/23 02:57:06;;;;;;;6.65;2.67;;;;;;;14.56;90.46;101970.56;10186837;28;20065;-68
2021/08/23 03:02:02;;;;;;;9.45;2.47;;;;;;;14.52;90.56;101973.91;10185371;28;20038;-67
2021/08/23 03:06:59;;;;;;;8.32;2.60;;;;;;;14.43;90.52;101970.28;10176433;28;20046;-68
2021/08/23 03:11:55;;;;;;;7.20;2.42;;;;;;;14.40;90.23;101970.91;10183336;28;20414;-71
2021/08/23 03:16:52;;;;;;;6.18;2.33;;;;;;;14.28;90.84;101976.16;10183247;28;20073;-71
2021/08/23 03:21:49;;;;;;;8.68;2.08;;;;;;;14.28;90.34;101987.19;10184531;28;20077;-71
2021/08/23 03:26:45;;;;;;;11.52;2.65;;;;;;;14.28;90.11;101989.94;10178026;28;20046;-70
2021/08/23 03:31:42;;;;;;;6.10;2.00;;;;;;;14.20;90.04;101987.91;10174987;28;20467;-70
2021/08/23 03:36:43;;;;;;;7.25;1.92;;;;;;;14.15;89.97;101996.28;10182113;28;20108;-70
2021/08/23 03:41:40;;;;;;;6.80;2.08;;;;;;;14.10;90.07;101994.47;10173625;28;20049;-70
2021/08/23 03:46:36;;;;;;;6.60;2.53;;;;;;;13.99;89.96;101999.38;10177399;28;20053;-68
2021/08/23 03:51:33;;;;;;;6.82;2.88;;;;;;;14.00;89.78;102001.03;10174294;28;20080;-70
2021/08/23 03:56:29;;;;;;;10.88;2.92;;;;;;;13.97;89.49;102006.31;10166035;28;20046;-69
2021/08/23 04:01:26;;;;;;;8.77;2.72;;;;;;;13.87;89.65;102012.84;10186122;28;20100;-69
2021/08/23 04:06:22;;;;;;;9.27;2.92;;;;;;;13.87;90.07;102021.09;10179285;28;20049;-70
2021/08/23 04:11:19;;;;;;;8.90;3.00;;;;;;;13.83;90.11;102028.34;10185183;28;20042;-68
2021/08/23 04:16:18;;;;;;;7.38;2.53;;;;;;;13.85;90.10;102026.09;10185112;28;20045;-69
2021/08/23 04:21:15;;;;;;;8.13;3.35;;;;;;;13.73;89.71;102029.38;10190441;28;20104;-69
2021/08/23 04:26:11;;;;;;;8.02;2.58;;;;;;;13.77;90.03;102037.81;10167636;28;20070;-67
2021/08/23 04:31:08;;;;;;;9.35;3.20;;;;;;;13.75;90.08;102043.63;10181084;28;20069;-67
2021/08/23 04:36:05;;;;;;;11.48;4.13;;;;;;;13.72;90.12;102054.44;10175094;28;20053;-68
2021/08/23 04:41:01;;;;;;;15.57;3.75;;;;;;;13.68;90.70;102055.03;10182548;28;20573;-69
2021/08/23 04:45:58;;;;;;;9.48;4.28;;;;;;;13.68;90.23;102059.72;10175927;28;20112;-66
2021/08/23 04:50:54;;;;;;;12.32;3.80;;;;;;;13.68;90.52;102071.50;10190691;28;20116;-64
2021/08/23 04:55:51;;;;;;;12.52;4.03;;;;;;;13.66;90.56;102068.25;10176453;28;20061;-65
2021/08/23 05:00:48;;;;;;;9.75;4.95;;;;;;;13.71;90.27;102074.78;10182878;28;20056;-65
2021/08/23 05:05:48;;;;;;;7.70;4.57;;;;;;;13.64;90.78;102081.47;10158720;28;20050;-66
2021/08/23 05:10:46;;;;;;;9.63;4.70;;;;;;;13.67;90.72;102086.38;10170953;28;20512;-64
2021/08/23 05:15:42;;;;;;;9.85;5.00;;;;;;;13.71;90.62;102096.75;10175738;28;20099;-66
2021/08/23 05:20:39;;;;;;;12.50;5.30;;;;;;;13.68;90.93;102107.25;10172319;28;20069;-66
2021/08/23 05:25:37;;;;;;;12.77;5.40;;;;;;;13.63;91.20;102112.84;10175865;28;20050;-66
2021/08/23 05:30:33;;;;;;;10.80;4.32;;;;;;;13.73;90.81;102113.78;10176511;28;20060;-65
2021/08/23 05:35:30;;;;;;;13.00;5.57;;;;;;;13.74;91.43;102118.13;10174578;28;20049;-65
2021/08/23 05:40:30;;;;;;;12.35;5.38;;;;;;;13.80;90.61;102117.72;10176924;28;20069;-66
2021/08/23 05:45:27;;;;;;;14.70;5.20;;;;;;;13.85;90.38;102120.41;10175022;28;20516;-65
2021/08/23 05:50:23;;;;;;;9.98;4.28;;;;;;;13.89;90.34;102121.41;10173801;28;20078;-65
2021/08/23 05:55:20;;;;;;;13.25;4.97;;;;;;;13.91;90.91;102123.84;10169236;28;20061;-66
2021/08/23 06:00:18;;;;;;;10.60;4.63;;;;;;;13.98;90.43;102126.19;10173378;28;20081;-65
2021/08/23 06:05:15;;;;;;;16.88;4.93;;;;;;;14.05;89.59;102130.16;10180613;28;20058;-66
2021/08/23 06:10:12;;;;;;;11.88;4.05;;;;;;;14.17;90.03;102126.06;10170506;28;20452;-67
2021/08/23 06:15:09;;;;;;;21.92;3.95;;;;;;;14.22;88.64;102134.19;10174635;28;20096;-64
2021/08/23 06:20:07;;;;;;;15.25;3.67;;;;;;;14.26;87.93;102140.72;10171489;28;20136;-67
2021/08/23 06:25:05;;;;;;;8.45;3.13;;;;;;;14.35;88.55;102133.38;10169764;28;20069;-67
2021/08/23 06:30:04;;;;;;;7.65;3.38;;;;;;;14.42;87.35;102144.75;10173396;28;20038;-66
2021/08/23 06:35:03;;;;;;;9.00;2.85;;;;;;;14.50;86.22;102145.97;10173272;28;20070;-65
2021/08/23 06:40:00;;;;;;;7.75;1.55;;;;;;;14.57;85.23;102151.06;10167564;28;20160;-66
2021/08/23 06:44:57;;;;;;;10.45;2.90;;;;;;;14.72;86.34;102153.50;10168562;28;20125;-65
2021/08/23 06:49:53;;;;;;;10.63;2.55;;;;;;;14.78;84.25;102168.75;10166510;28;20082;-65
2021/08/23 06:54:50;;;;;;;12.25;2.55;;;;;;;14.87;86.13;102172.38;10169315;28;20106;-66
2021/08/23 06:59:46;;;;;;;6.43;2.30;;;;;;;14.93;84.21;102176.66;10168629;28;20077;-67
2021/08/23 07:04:44;;;;;;;4.80;1.58;;;;;;;14.99;82.14;102184.78;10164047;28;20038;-69
2021/08/23 07:09:41;;;;;;;6.10;2.47;;;;;;;15.08;81.93;102185.69;10162312;28;20104;-69
2021/08/23 07:14:37;;;;;;;12.32;2.75;;;;;;;15.15;82.91;102188.81;10160718;28;20088;-67
2021/08/23 07:19:34;;;;;;;6.45;2.00;;;;;;;15.23;80.75;102181.75;10154978;28;20042;-70
2021/08/23 07:24:50;;;;;;;9.52;2.13;;;;;;;15.46;83.98;102193.56;10164155;28;20050;-69
2021/08/23 07:29:46;;;;;;;10.43;2.15;;;;;;;15.50;84.52;102195.38;10163532;28;20045;-69
2021/08/23 07:34:44;;;;;;;8.48;2.20;;;;;;;15.58;81.22;102200.13;10170420;28;20038;-67
2021/08/23 07:39:42;;;;;;;9.88;1.85;;;;;;;15.70;80.15;102207.81;10174952;28;20172;-67
2021/08/23 07:44:39;;;;;;;5.00;1.50;;;;;;;15.78;78.57;102218.09;10163557;28;20054;-70
2021/08/23 07:49:36;;;;;;;7.40;1.65;;;;;;;15.90;76.86;102216.69;10169602;28;20054;-69
2021/08/23 07:54:35;;;;;;;7.28;1.77;;;;;;;16.08;77.79;102226.69;10105203;28;20091;-68
2021/08/23 07:59:32;;;;;;;6.72;1.98;;;;;;;16.20;76.84;102226.88;10093514;28;20090;-70
2021/08/23 08:04:29;;;;;;;4.32;1.40;;;;;;;16.28;76.50;102230.78;10089426;28;20059;-69
2021/08/23 08:09:26;;;;;;;6.18;1.67;;;;;;;16.37;77.37;102234.38;10097646;28;20062;-68
2021/08/23 08:14:23;;;;;;;3.33;1.38;;;;;;;16.47;76.61;102241.56;10102868;28;20046;-69
2021/08/23 08:19:19;;;;;;;5.70;1.52;;;;;;;16.53;75.88;102254.09;10110235;28;20142;-70
2021/08/23 08:24:19;;;;;;;6.65;1.40;;;;;;;16.68;75.27;102249.22;10108789;28;20126;-69
2021/08/23 08:29:15;;;;;;;6.18;1.70;;;;;;;16.87;76.42;102246.19;10098173;28;20098;-69
2021/08/23 08:34:12;;;;;;;5.70;1.35;;;;;;;17.02;75.45;102265.88;10091006;28;20044;-69
2021/08/23 08:39:08;;;;;;;3.97;1.08;;;;;;;17.16;74.83;102264.91;10097536;28;20047;-70
2021/08/23 08:44:05;;;;;;;3.53;1.00;;;;;;;17.27;73.21;102268.97;10096093;28;20075;-70
2021/08/23 08:49:04;;;;;;;7.72;1.30;;;;;;;17.30;70.51;102273.84;10094013;28;20070;-68
2021/08/23 08:54:03;;;;;;;6.18;1.05;;;;;;;17.46;70.29;102280.50;10089346;28;20097;-68
2021/08/23 08:59:01;;;;;;;5.03;1.10;;;;;;;17.52;69.57;102288.63;10099035;28;20074;-68
2021/08/23 09:04:05;;;;;;;5.72;1.20;;;;;;;17.61;70.16;102298.53;10098718;28;20138;-69
2021/08/23 09:09:22;;;;;;;5.47;1.10;;;;;;;17.66;68.46;102295.63;10096665;28;20043;-67
2021/08/23 09:14:19;;;;;;;5.32;1.27;;;;;;;17.93;69.13;102298.34;10085785;28;20070;-67
2021/08/23 09:19:27;;;;;;;4.47;1.05;;;;;;;17.97;67.92;102288.25;10100327;28;20055;-67
2021/08/23 09:24:23;;;;;;;4.18;1.30;;;;;;;18.10;67.43;102298.28;10096307;28;20133;-67
2021/08/23 09:29:20;;;;;;;4.40;1.17;;;;;;;18.23;66.72;102297.28;10098875;28;20051;-66
2021/08/23 09:34:18;;;;;;;6.32;1.77;;;;;;;18.39;66.48;102299.50;10092334;28;20476;-69
2021/08/23 09:39:16;;;;;;;6.32;1.40;;;;;;;18.62;65.99;102298.06;10102980;28;20457;-74
2021/08/23 09:44:14;;;;;;;4.60;1.38;;;;;;;19.01;66.32;102293.28;10096423;28;20131;-68
2021/08/23 09:49:13;;;;;;;8.65;1.50;;;;;;;19.11;63.44;102297.63;10094859;28;20478;-67
2021/08/23 09:54:19;;;;;;;8.85;1.20;;;;;;;19.63;62.45;102301.88;10096249;28;20043;-68
2021/08/23 09:59:29;;;;;;;5.25;1.73;;;;;;;20.13;60.49;102303.69;10094614;28;20082;-67
2021/08/23 10:04:27;;;;;;;3.35;1.15;;;;;;;21.20;58.09;102307.09;10095168;28;20053;-70
2021/08/23 10:09:28;;;;;;;6.18;1.45;;;;;;;21.25;56.92;102313.56;10092695;28;20058;-68
2021/08/23 10:14:25;;;;;;;2.58;1.08;;;;;;;21.34;56.59;102322.59;10096663;28;20137;-67
2021/08/23 10:19:22;;;;;;;4.60;1.63;;;;;;;22.65;55.98;102323.69;10102709;28;20074;-66
2021/08/23 10:24:25;;;;;;;5.55;1.30;;;;;;;23.00;53.99;102328.50;10098405;28;20127;-66
2021/08/23 10:29:21;;;;;;;;;;;;;;;22.59;51.15;102331.53;10093906;28;20055;-66
2021/08/23 10:34:20;;;;;;;4.22;1.23;;;;;;;23.37;50.29;102326.13;10092864;28;20003;-65
2021/08/23 10:39:22;;;;;;;5.45;1.40;;;;;;;23.18;51.56;102335.28;10093055;28;20416;-65
2021/08/23 10:44:26;;;;;;;3.15;1.20;;;;;;;24.00;50.09;102324.97;10095148;28;20043;-65
2021/08/23 10:49:25;;;;;;;5.70;1.25;;;;;;;23.88;48.95;102327.94;10095521;28;20050;-67
2021/08/23 10:54:25;;;;;;;3.63;1.02;;;;;;;23.29;50.09;102336.31;10095249;28;20047;-68
2021/08/23 10:59:50;;;;;;;5.68;1.67;;;;;;;23.26;51.09;102331.47;10095183;28;20077;-67
2021/08/23 11:05:01;;;;;;;4.70;1.08;;;;;;;24.86;46.67;102326.41;10096189;28;20406;-67
2021/08/23 11:10:08;;;;;;;10.15;1.35;;;;;;;25.72;43.41;102327.50;10098396;28;20051;-67
2021/08/23 11:15:13;;;;;;;3.05;1.02;;;;;;;25.72;44.07;102333.09;10091569;28;20050;-67
2021/08/23 11:20:18;;;;;;;4.15;0.90;;;;;;;25.58;44.42;102335.75;10106672;28;20042;-67
2021/08/23 11:25:46;;;;;;;4.63;1.25;;;;;;;25.02;44.63;102344.97;10105262;28;20064;-67
2021/08/23 11:30:57;;;;;;;4.10;1.30;;;;;;;23.79;44.43;102346.91;10108582;28;20504;-68
2021/08/23 11:35:58;;;;;;;2.50;0.95;;;;;;;24.03;46.64;102341.00;10103037;28;20051;-68
2021/08/23 11:40:56;;;;;;;5.20;1.27;;;;;;;23.67;47.89;102348.69;10106418;28;20049;-68
2021/08/23 11:45:56;;;;;;;3.20;1.00;;;;;;;22.87;50.94;102342.53;10101793;28;20058;-67
2021/08/23 11:51:05;;;;;;;5.80;1.60;;;;;;;22.94;49.89;102346.69;10111511;28;20473;-67
2021/08/23 11:56:13;;;;;;;8.25;1.65;;;;;;;22.53;48.39;102343.31;10097966;28;20516;-67
2021/08/23 12:01:17;;;;;;;4.03;1.00;;;;;;;22.95;51.50;102353.84;10101399;28;20047;-68
2021/08/23 12:06:16;;;;;;;3.20;1.10;;;;;;;23.00;49.56;102356.38;10091813;28;20097;-66
2021/08/23 12:11:18;;;;;;;2.65;0.93;;;;;;;22.93;51.42;102356.19;10097970;28;20042;-69
2021/08/23 12:16:36;;;;;;;2.33;0.93;;;;;;;22.79;47.72;102346.34;10098788;28;20043;-71
2021/08/23 12:21:35;;;;;;;2.65;0.82;;;;;;;23.09;52.36;102359.78;10095495;28;20134;-69
2021/08/23 12:27:03;;;;;;;3.35;1.00;;;;;;;23.64;50.29;102363.34;10091003;28;20039;-69
2021/08/23 12:32:11;;;;;;;2.53;0.85;;;;;;;24.65;48.60;102354.06;10107643;28;20051;-69
2021/08/23 12:37:18;;;;;;;7.13;0.75;;;;;;;25.33;44.91;102355.03;10099418;28;20109;-68
2021/08/23 12:42:28;;;;;;;4.30;1.20;;;;;;;25.16;41.52;102359.19;10104600;28;20051;-70
2021/08/23 12:47:27;;;;;;;6.03;1.10;;;;;;;24.75;47.21;102348.59;10092286;28;20043;-68
2021/08/23 12:52:23;;;;;;;2.10;0.80;;;;;;;24.20;48.51;102362.03;10101368;28;20444;-68
2021/08/23 12:57:24;;;;;;;2.65;0.63;;;;;;;24.02;49.59;102361.75;10105722;28;20082;-68
2021/08/23 13:02:37;;;;;;;4.63;1.02;;;;;;;23.84;44.69;102357.81;10106214;28;20093;-69
2021/08/23 13:07:42;;;;;;;2.15;0.60;;;;;;;24.09;49.13;102350.69;10101431;28;20046;-67
2021/08/23 13:12:41;;;;;;;3.97;0.93;;;;;;;23.70;45.88;102367.47;10106637;28;20046;-67
2021/08/23 13:17:40;;;;;;;3.20;0.90;;;;;;;23.26;48.61;102373.34;10111640;28;20090;-69
2021/08/23 13:22:42;;;;;;;5.25;1.25;;;;;;;22.99;50.94;102366.75;10105617;28;20046;-67
2021/08/23 13:27:39;;;;;;;2.72;0.73;;;;;;;22.99;53.36;102365.94;10102771;28;20070;-66
2021/08/23 13:32:40;;;;;;;2.40;0.70;;;;;;;23.01;53.74;102369.19;10104243;28;20478;-68
2021/08/23 13:37:46;;;;;;;2.90;0.70;;;;;;;22.92;49.18;102376.91;10107358;28;20042;-66
2021/08/23 13:42:43;;;;;;;2.50;0.80;;;;;;;22.99;52.92;102377.91;10102210;28;20054;-68
2021/08/23 13:47:43;;;;;;;2.67;0.95;;;;;;;22.94;52.15;102380.16;10103937;28;20049;-67
2021/08/23 13:52:44;;;;;;;5.18;1.00;;;;;;;23.02;50.58;102376.38;10096230;28;20043;-68
2021/08/23 13:57:43;;;;;;;2.97;0.85;;;;;;;23.24;47.77;102383.25;10093269;28;20053;-68
2021/08/23 14:02:41;;;;;;;2.42;0.95;;;;;;;23.52;52.84;102377.47;10103436;28;20416;-68
2021/08/23 14:07:44;;;;;;;4.45;1.10;;;;;;;23.26;50.30;102381.72;10098027;28;20085;-69
2021/08/23 14:12:42;;;;;;;4.43;0.98;;;;;;;22.97;46.67;102379.41;10087601;28;20074;-68
2021/08/23 14:17:44;;;;;;;2.97;1.02;;;;;;;22.86;47.70;102377.19;10086082;28;20043;-69
2021/08/23 14:22:53;;;;;;;4.40;0.83;;;;;;;23.12;53.10;102375.81;10101789;28;20093;-68
2021/08/23 14:27:54;;;;;;;2.28;0.82;;;;;;;23.36;52.96;102385.09;10104761;28;20046;-68
2021/08/23 14:32:58;;;;;;;4.10;0.90;;;;;;;23.48;51.83;102382.16;10100582;28;20083;-68
2021/08/23 14:37:58;;;;;;;2.10;0.73;;;;;;;23.31;46.22;102383.41;10097157;28;20049;-68
2021/08/23 14:42:58;;;;;;;6.10;1.15;;;;;;;23.19;50.20;102386.34;10101758;28;20054;-69
2021/08/23 14:48:07;;;;;;;4.32;1.33;;;;;;;22.98;48.52;102389.41;10085874;28;20057;-68
2021/08/23 14:53:13;;;;;;;6.13;1.08;;;;;;;22.76;44.43;102391.66;10094583;28;20129;-68
2021/08/23 14:58:13;;;;;;;2.42;0.85;;;;;;;22.97;52.03;102396.94;10092200;28;20046;-69
2021/08/23 15:03:14;;;;;;;1.75;0.60;;;;;;;22.90;53.86;102397.59;10087455;28;20130;-68
2021/08/23 15:08:20;;;;;;;;;;;;;;;23.04;52.92;102396.34;10091313;28;20469;-69
2021/08/23 15:13:17;;;;;;;6.05;1.20;;;;;;;22.93;49.93;102398.03;10108952;28;19929;-68
2021/08/23 15:18:14;;;;;;;3.72;0.90;;;;;;;22.95;51.51;102399.28;10098397;28;20066;-69
2021/08/23 15:23:21;;;;;;;3.47;0.90;;;;;;;22.87;51.58;102403.91;10103360;28;20130;-70
2021/08/23 15:28:35;;;;;;;6.43;1.60;;;;;;;22.68;52.35;102406.63;10091887;28;20053;-68
2021/08/23 15:33:37;;;;;;;5.25;1.45;;;;;;;22.45;54.20;102414.81;10091352;28;20220;-68
2021/08/23 15:38:36;;;;;;;3.10;1.00;;;;;;;22.17;57.44;102414.81;10088682;28;20513;-69
2021/08/23 15:43:39;;;;;;;5.55;1.40;;;;;;;21.92;45.68;102414.94;10088519;28;20050;-65
2021/08/23 15:48:43;;;;;;;;;;;;;;;22.14;55.87;102415.53;10092191;28;20047;-69
2021/08/23 15:53:43;;;;;;;4.07;1.10;;;;;;;22.24;48.03;102403.91;10087011;28;19965;-68
2021/08/23 15:58:40;;;;;;;6.15;1.60;;;;;;;22.34;53.76;102414.50;10106291;28;20070;-68
2021/08/23 16:03:40;;;;;;;4.93;1.70;;;;;;;22.37;56.52;102413.81;10101386;28;20048;-68
2021/08/23 16:08:36;;;;;;;3.60;1.05;;;;;;;22.24;46.10;102413.06;10106768;28;20049;-66
2021/08/23 16:13:36;;;;;;;7.80;0.90;;;;;;;22.57;46.21;102417.50;10101780;28;20555;-65
2021/08/23 16:18:38;;;;;;;3.33;1.35;;;;;;;23.07;52.98;102417.94;10099325;28;20103;-69
2021/08/23 16:23:43;;;;;;;4.00;1.77;;;;;;;23.34;51.81;102415.34;10088421;28;20163;-68
2021/08/23 16:28:46;;;;;;;3.25;1.02;;;;;;;23.26;44.62;102418.00;10083568;28;20134;-69
2021/08/23 16:34:05;;;;;;;7.63;1.65;;;;;;;23.57;48.11;102424.63;10093773;28;20043;-69
2021/08/23 16:39:02;;;;;;;3.50;1.30;;;;;;;23.85;40.73;102423.66;10104011;28;20178;-67
2021/08/23 16:44:03;;;;;;;14.35;7.00;;;;;;;24.59;40.95;102422.66;10100262;28;20154;-67
2021/08/23 16:49:03;;;;;;;7.07;1.73;;;;;;;25.08;39.24;102416.22;10093690;28;20073;-68
2021/08/23 16:54:13;;;;;;;10.82;2.10;;;;;;;25.16;37.61;102417.97;10079650;28;20043;-67
2021/08/23 16:59:13;;;;;;;2.95;1.30;;;;;;;25.68;41.13;102421.09;10094727;28;20642;-68
2021/08/23 17:04:16;;;;;;;4.40;1.20;;;;;;;25.44;36.76;102419.59;10097926;28;20118;-68
2021/08/23 17:09:17;;;;;;;5.53;1.47;;;;;;;25.24;43.78;102419.69;10102827;28;20050;-68
2021/08/23 17:14:16;;;;;;;29.52;14.48;;;;;;;24.22;49.32;102428.75;10105222;28;20197;-66
2021/08/23 17:19:15;;;;;;;4.13;1.77;;;;;;;23.46;47.55;102412.44;10093046;28;20051;-67
2021/08/23 17:24:23;;;;;;;6.75;1.52;;;;;;;23.00;47.25;102417.75;10093842;28;20054;-67
2021/08/23 17:29:23;;;;;;;8.07;2.13;;;;;;;22.72;51.40;102421.47;10100873;28;20058;-67
2021/08/23 17:34:31;;;;;;;4.43;1.33;;;;;;;22.41;49.59;102423.06;10092792;28;20043;-68
2021/08/23 17:39:29;;;;;;;6.13;1.45;;;;;;;22.03;48.65;102415.25;10094163;28;20112;-68
2021/08/23 17:44:28;;;;;;;5.70;1.60;;;;;;;21.89;49.64;102420.41;10101246;28;20047;-66
2021/08/23 17:49:25;;;;;;;5.15;1.42;;;;;;;21.66;48.74;102436.84;10109095;28;20055;-67
2021/08/23 17:54:31;;;;;;;4.97;1.30;;;;;;;21.50;50.85;102443.13;10098779;28;20047;-67
2021/08/23 17:59:33;;;;;;;6.18;1.90;;;;;;;21.35;52.02;102447.44;10086672;28;20051;-66
2021/08/23 18:04:46;;;;;;;7.18;1.52;;;;;;;21.20;52.16;102445.34;10093339;28;20043;-67
2021/08/23 18:09:48;;;;;;;6.15;1.50;;;;;;;21.00;51.27;102458.22;10096317;28;20093;-66
2021/08/23 18:14:51;;;;;;;6.45;1.73;;;;;;;20.83;52.53;102453.69;10085571;28;20054;-67
2021/08/23 18:19:51;;;;;;;8.27;1.70;;;;;;;20.76;53.10;102465.38;10086582;28;20059;-66
2021/08/23 18:24:53;;;;;;;3.10;1.30;;;;;;;20.66;54.11;102470.59;10078923;28;20039;-66
2021/08/23 18:29:52;;;;;;;11.55;1.90;;;;;;;20.54;55.17;102468.56;10100277;28;20145;-67
2021/08/23 18:34:51;;;;;;;7.13;2.17;;;;;;;20.38;54.77;102482.31;10105692;28;20114;-66
2021/08/23 18:39:50;;;;;;;8.95;1.90;;;;;;;20.24;56.45;102478.97;10108146;28;20235;-68
2021/08/23 18:44:56;;;;;;;7.10;2.08;;;;;;;20.14;56.05;102488.56;10098602;28;20054;-67
2021/08/23 18:50:13;;;;;;;7.82;1.92;;;;;;;20.08;56.87;102490.75;10104389;28;20109;-68
2021/08/23 18:55:10;;;;;;;5.78;2.28;;;;;;;20.00;57.26;102493.59;10097461;28;20058;-69
2021/08/23 19:00:13;;;;;;;9.95;2.60;;;;;;;19.91;57.67;102491.72;10093388;28;20516;-67
2021/08/23 19:05:12;;;;;;;15.48;2.67;;;;;;;19.85;57.87;102498.59;10090639;28;20217;-67
2021/08/23 19:10:13;;;;;;;6.25;1.90;;;;;;;19.77;58.55;102502.25;10088007;28;20059;-66
2021/08/23 19:15:17;;;;;;;7.35;2.15;;;;;;;19.68;59.09;102509.78;10106876;28;20409;-67
2021/08/23 19:20:16;;;;;;;9.15;2.70;;;;;;;19.61;60.08;102503.97;10085313;28;20064;-67
2021/08/23 19:25:18;;;;;;;5.22;2.10;;;;;;;19.51;60.32;102505.97;10102851;28;20066;-67
2021/08/23 19:30:19;;;;;;;5.43;1.92;;;;;;;19.39;60.44;102508.66;10083272;28;20047;-66
2021/08/23 19:35:21;;;;;;;;;;;;;;;19.26;60.87;102509.69;10103023;28;20054;-68
2021/08/23 19:40:53;;;;;;;5.72;2.28;;;;;;;19.08;60.80;102512.56;10105921;28;19973;-67
2021/08/23 19:45:53;;;;;;;5.65;2.35;;;;;;;18.95;61.12;102526.63;10104090;28;20043;-66
2021/08/23 19:50:55;;;;;;;7.65;2.70;;;;;;;18.82;61.93;102531.22;10107363;28;20138;-68
2021/08/23 19:55:55;;;;;;;6.75;2.67;;;;;;;18.72;61.99;102530.41;10094693;28;20416;-68
2021/08/23 20:01:02;;;;;;;6.45;2.67;;;;;;;18.61;62.50;102529.16;10105627;28;20075;-68
2021/08/23 20:06:02;;;;;;;6.10;2.38;;;;;;;18.49;63.08;102538.09;10101219;28;20058;-69
2021/08/23 20:11:04;;;;;;;5.68;2.88;;;;;;;18.39;63.57;102545.97;10109453;28;20046;-68
2021/08/23 20:16:22;;;;;;;7.60;2.92;;;;;;;18.25;64.02;102544.16;10112224;28;20132;-68
2021/08/23 20:21:25;;;;;;;8.35;3.17;;;;;;;18.17;64.33;102545.00;10105968;28;20050;-68
2021/08/23 20:26:25;;;;;;;5.87;3.13;;;;;;;18.08;64.78;102555.25;10105359;28;20118;-69
2021/08/23 20:31:26;;;;;;;8.05;4.38;;;;;;;18.00;64.95;102545.78;10103455;28;20047;-68
2021/08/23 20:36:36;;;;;;;8.23;3.42;;;;;;;17.91;65.12;102555.22;10104495;28;20050;-69
2021/08/23 20:41:50;;;;;;;5.50;3.23;;;;;;;17.82;66.28;102553.25;10101233;28;20051;-69
2021/08/23 20:46:51;;;;;;;8.40;3.22;;;;;;;17.70;66.07;102553.03;10110342;28;20065;-69
2021/08/23 20:51:59;;;;;;;8.93;3.60;;;;;;;17.65;66.57;102553.19;10099583;28;20184;-69
2021/08/23 20:56:58;;;;;;;9.48;3.25;;;;;;;17.59;66.56;102562.75;10101531;28;20463;-69
2021/08/23 21:01:57;;;;;;;9.23;3.38;;;;;;;17.50;66.60;102567.44;10111064;28;20046;-69
2021/08/23 21:07:02;;;;;;;5.50;3.08;;;;;;;17.43;66.97;102568.72;10114289;28;20091;-68
2021/08/23 21:12:01;;;;;;;8.82;3.60;;;;;;;17.33;66.83;102574.53;10110794;28;20098;-69
2021/08/23 21:17:08;;;;;;;11.88;3.58;;;;;;;17.31;67.14;102564.94;10103376;28;20131;-69
2021/08/23 21:22:06;;;;;;;7.82;3.40;;;;;;;17.23;67.50;102570.09;10107452;28;20505;-69
2021/08/23 21:27:05;;;;;;;7.32;3.13;;;;;;;17.18;67.87;102573.00;10112175;28;20066;-69
2021/08/23 21:32:14;;;;;;;6.75;3.03;;;;;;;17.08;67.67;102578.00;10113551;28;20069;-68
2021/08/23 21:37:17;;;;;;;9.20;3.40;;;;;;;17.01;68.01;102601.38;10112726;28;20046;-69
2021/08/23 21:42:18;;;;;;;7.68;3.22;;;;;;;16.90;68.24;102594.47;10111843;28;20042;-69
2021/08/23 21:47:23;;;;;;;12.05;3.13;;;;;;;16.86;68.44;102599.00;10113008;28;20042;-69
2021/08/23 21:52:27;;;;;;;6.60;2.88;;;;;;;16.80;68.93;102600.25;10106009;28;20130;-71
2021/08/23 21:57:34;;;;;;;9.30;3.10;;;;;;;16.77;69.05;102598.09;10094630;28;20058;-68
2021/08/23 22:02:34;;;;;;;8.07;2.42;;;;;;;16.69;69.28;102604.38;10104591;28;20452;-69
2021/08/23 22:07:37;;;;;;;13.68;2.75;;;;;;;16.62;69.55;102605.63;10107013;28;20042;-68
2021/08/23 22:12:37;;;;;;;9.52;2.83;;;;;;;16.53;69.81;102607.50;10109910;28;20050;-70
2021/08/23 22:17:34;;;;;;;9.35;3.30;;;;;;;16.45;69.76;102616.53;10096258;28;20081;-71
2021/08/23 22:22:41;;;;;;;7.30;2.92;;;;;;;16.36;70.04;102612.88;10109258;28;20074;-71
2021/08/23 22:27:44;;;;;;;6.15;2.92;;;;;;;16.29;70.15;102629.03;10102623;28;20588;-71
2021/08/23 22:32:41;;;;;;;;;;;;;;;16.17;70.74;102633.16;10111226;28;20089;-69
2021/08/23 22:37:43;;;;;;;11.80;2.88;;;;;;;16.05;71.09;102630.09;10106545;28;19929;-69
2021/08/23 22:42:46;;;;;;;7.13;2.72;;;;;;;15.99;71.09;102636.88;10110453;28;20093;-68
2021/08/23 22:47:44;;;;;;;7.63;2.97;;;;;;;15.93;71.38;102632.59;10105967;28;20043;-67
2021/08/23 22:52:43;;;;;;;12.77;3.33;;;;;;;15.90;71.61;102633.22;10104779;28;20054;-69
2021/08/23 22:58:01;;;;;;;8.32;3.25;;;;;;;15.81;71.93;102621.25;10106875;28;20077;-69
2021/08/23 23:03:02;;;;;;;8.75;3.22;;;;;;;15.75;71.95;102637.88;10105795;28;20113;-69
2021/08/23 23:08:17;;;;;;;9.00;3.30;;;;;;;15.67;72.45;102630.31;10102372;28;20122;-69